Vue régionale

METAR et TAF

Dimanche 07 juin 2020 à 11h15

Visibilités horizontales observées à différents aéroports. Les observations (METAR) et prévisions aéronautiques (TAF) complètes sont disponibles en cliquant sur l’icône correspondante.

  • Luxemburg (ELLX)

    Taf: TAF COR ELLX 070500Z 0706/0812 22006KT CAVOK PROB40 TEMPO 0709/0712 BKN030TCU TEMPO 0800/0806 VRB02KT BECMG 0806/0809 02005KT=

    Metar: METAR ELLX 070850Z 24008KT 190V270 9999 FEW022 BKN025 BKN042 12/06 Q1008 NOSIG=

  • Spangdahlem (ETAD)

    Taf: TAF ETAD 061352Z 0614/0720 23014G20KT 9999 SCT040 SCT060 QNH2961INS BECMG 0617/0618 23008KT 9999 SCT030 BKN050 QNH2966INS BECMG 0704/0705 23010G15KT 9999 SCT015 BKN025 QNH2974INS TX16/0614Z TN08/0708Z LAST NO AMDS AFT 0618=

    Metar: METAR ETAD 070856Z AUTO 23007KT 9999 FEW023 SCT030 OVC041 13/07 A2976 RMK AO2 SLP068 T01270065 52016 $=

  • Metz/Nancy (LFJL)

    Taf: TAF LFJL 070500Z 0706/0806 24010KT CAVOK TEMPO 0713/0718 30015G25KT FEW035TCU BECMG 0718/0721 VRB03KT PROB40 TEMPO 0800/0805 3000 BR=

    Metar: METAR LFJL 070900Z AUTO 26008KT CAVOK 14/06 Q1009 NOSIG=

  • Saarbrücken/Intl (EDDR)

    Taf: TAF EDDR 070500Z 0706/0806 24007KT CAVOK BECMG 0717/0719 VRB03KT=

    Metar: METAR EDDR 070850Z 26008KT 220V290 9999 FEW030 13/05 Q1009 NOSIG=

  • Hahn (EDFH)

    Taf: TAF EDFH 070500Z 0706/0806 26008KT 9999 SCT030 BECMG 0718/0720 VRB03KT=

    Metar: METAR EDFH 070850Z 26011KT 220V290 9999 SCT041 11/05 Q1008=

  • Ramstein (ETAR)

    Taf: TAF AMD ETAR 070722Z 0707/0808 24006KT 9999 FEW015 SCT050 QNH2970INS BECMG 0708/0709 26010G20KT 9999 SCT050 510004 QNH2974INS BECMG 0714/0715 VRB06KT 9999 FEW050 QNH2980INS TX19/0716Z TN05/0803Z=

    Metar: METAR ETAR 070856Z AUTO 26009KT 9999 FEW170 SCT200 15/06 A2978 RMK AO2 SLP087 T01450056 52016 FZRANO $=

  • Nancy/Ochey (LFSO)

    Taf: TAF LFSO 070800Z NIL=

    Metar: METAR LFSO 070900Z AUTO 24008KT CAVOK 13/05 Q1009=

  • Liège Bierset (EBLG)

    Taf: TAF EBLG 070500Z 0706/0812 24010KT 9999 SCT020 PROB30 TEMPO 0706/0708 BKN010 BECMG 0715/0717 30008KT PROB30 TEMPO 0806/0812 4500 SHRA BKN014 SCT030TCU=

    Metar: METAR EBLG 070850Z 25012KT 9999 BKN028 13/06 Q1007 NOSIG=

  • Saint-Dizier (LFSI)

    Taf: TAF LFSI 070800Z 0709/0809 26008KT 9999 SCT030 TEMPO 0712/0721 4000 -SHRA SCT040TCU PROB30 TEMPO 0803/0807 0800 FG=

    Metar: METAR LFSI 070900Z AUTO 23007KT 180V260 9999 BKN032 15/08 Q1009=

  • Maastricht/Zuid Limburg (EHBK)

    Taf: TAF COR EHBK 070537Z 0706/0812 24013KT 9999 BKN020 PROB40 TEMPO 0706/0709 BKN014 PROB30 TEMPO 0706/0713 7000 -SHRA FEW020CB BECMG 0712/0715 27008KT PROB30 TEMPO 0809/0812 7000 -SHRA FEW015TCU=

    Metar: METAR EHBK 070855Z AUTO 24012KT 210V290 9999 SCT032 SCT042 BKN048 14/07 Q1007 NOSIG=

  • Köln/Köln-Bonn (EDDK)

    Taf: TAF EDDK 070500Z 0706/0812 20008KT 9999 SCT045 TEMPO 0708/0713 24013KT BECMG 0713/0715 28008KT BECMG 0718/0720 13003KT BECMG 0808/0811 30005KT=

    Metar: METAR EDDK 070850Z 24009KT 210V300 9999 BKN032 15/07 Q1007 NOSIG=

  • Charleroi (EBCI)

    Taf: TAF EBCI 070500Z 0706/0812 26008KT 9999 SCT020 PROB30 TEMPO 0706/0707 BKN008 PROB30 TEMPO 0804/0810 4500 -RA -SHRA SCT008 BKN012 PROB40 TEMPO 0810/0812 4000 SHRA BKN014 SCT030TCU=

    Metar: METAR EBCI 070850Z AUTO 27006KT 230V320 9999 // FEW028/// BKN032/// BKN036/// 14/07 Q1008=

  • Wiesbaden (ETOU)

    Taf: TAF AMD ETOU 061340Z 0614/0718 22010G25KT 9999 -SHRA SCT025 BKN030 QNH2962INS BECMG 0617/0618 22006KT 9999 NSW BKN030 QNH2964INS BECMG 0701/0702 22006KT 9999 SCT030 QNH2970INS BECMG 0706/0707 25010G20KT 9999 SCT020 BKN030 QNH2973INS TX16/0615Z TN09/0704Z LAST NO AMDS AFT 0614=

    Metar: METAR ETOU 070856Z AUTO 26005KT 9999 FEW160 15/04 A2977 RMK AO2 SLP083 T01540041 52015 $=

  • Karlsruhe/Baden-Baden (EDSB)

    Taf: TAF EDSB 070500Z 0706/0806 24007KT CAVOK BECMG 0717/0719 VRB03KT=

    Metar: METAR EDSB 070850Z 25006KT 210V300 9999 SCT017 15/11 Q1009=

  • Chalons/Vatry (LFOK)

    Taf: TAF LFOK 070500Z 0706/0806 24008KT CAVOK TEMPO 0713/0718 BKN050TCU PROB40 TEMPO 0802/0805 2000 BR=

    Metar: METAR LFOK 070900Z AUTO 24007KT 200V290 9999 SCT021 BKN046 BKN076 14/09 Q1009 NOSIG=

  • Frankfurt/Main (EDDF)

    Taf: TAF EDDF 070500Z 0706/0812 20005KT CAVOK BECMG 0706/0708 26010KT BECMG 0719/0721 VRB03KT BECMG 0806/0808 05005KT=

    Metar: METAR EDDF 070850Z 22012KT 200V260 9999 FEW040 16/05 Q1008 NOSIG=

  • Brüssel (EBBR)

    Taf: TAF EBBR 070500Z 0706/0812 25010KT 9999 SCT025 BECMG 0714/0716 32010KT BECMG 0800/0802 26004KT PROB30 TEMPO 0803/0810 4500 -RA -SHRA SCT010 BKN014 PROB40 TEMPO 0810/0812 4000 SHRA BKN014 SCT030TCU BECMG 0810/0812 33010KT=

    Metar: METAR EBBR 070850Z 27012KT 9999 SCT025 15/08 Q1007 NOSIG=

  • Düsseldorf (EDDL)

    Taf: TAF EDDL 070500Z 0706/0812 23014KT 9999 SCT045 TEMPO 0708/0712 25015G25KT BECMG 0713/0716 26009KT BECMG 0718/0720 VRB03KT BECMG 0808/0811 31005KT=

    Metar: METAR EDDL 070850Z 24012KT 210V270 9999 SCT030 15/07 Q1006 NOSIG=

  • Luxeuil (LFSX)

    Taf: TAF LFSX 070800Z 0709/0809 30005KT 9999 BKN012 BECMG 0709/0711 SCT025 PROB40 TEMPO 0709/0717 SHRA SCT030TCU BKN055 PROB40 TEMPO 0802/0806 0800 FG=

    Metar: METAR LFSX 070900Z AUTO VRB02KT 9999 BKN014 BKN020 BKN030 14/11 Q1009=

  • Eindhoven (EHEH)

    Taf: TAF EHEH 070528Z 0706/0812 21011KT 9999 SCT035 BECMG 0706/0713 27010G20KT TEMPO 0706/0713 SCT010 SCT020CB BKN030 BECMG 0718/0721 24006KT TEMPO 0802/0812 BKN012 FEW015CB BKN020=

    Metar: METAR EHEH 070855Z AUTO 26009KT 200V310 9999 SCT025 BKN029 OVC033 14/07 Q1006 BLU 25011KT 9999 FEW015 SCT020 BKN050=

  • Niederrhein (EDLV)

    Taf: TAF EDLV 070500Z NIL=

    Metar: METAR EDLV 070850Z NIL=

  • Dortmund/Wickede (EDLW)

    Taf: TAF EDLW 070500Z 0706/0806 21008KT 9999 SCT040 BECMG 0706/0708 25013KT PROB40 TEMPO 0709/0712 24015G25KT BECMG 0713/0715 26008KT BECMG 0718/0720 19005KT=

    Metar: METAR EDLW 070850Z 22012KT 9999 SCT030 15/07 Q1005=

  • Stuttgart/Echterdingen (EDDS)

    Taf: TAF EDDS 070500Z 0706/0806 25004KT 9999 BKN040=

    Metar: METAR EDDS 070850Z 21004KT 160V280 9999 FEW013 14/09 Q1009 NOSIG=

  • Basel-Mühlhausen (LFSB)

    Taf: TAF LFSB 070500Z 0706/0806 VRB03KT 9999 FEW005 SCT050 TEMPO 0712/0718 33010KT FEW040TCU=

    Metar: METAR LFSB 070900Z AUTO VRB03KT 9999 FEW017 BKN026 BKN037 14/09 Q1009 NOSIG=

  • Lille (LFQQ)

    Taf: TAF LFQQ 070500Z 0706/0812 22005KT 9999 SCT016 SCT030 BECMG 0708/0711 28010KT BECMG 0715/0718 34010KT BECMG 0800/0802 OVC012 PROB40 0802/0806 3000 RA OVC007 TEMPO 0806/0812 3000 RA BKN007 BKN020TCU=

    Metar: METAR LFQQ 070900Z AUTO 27010KT 240V300 9999 BKN027 16/08 Q1007 NOSIG=

  • Paris/Charles de Gaulle (LFPG)

    Taf: TAF LFPG 070500Z 0706/0812 27008KT CAVOK TX21/0715Z TN10/0804Z PROB30 TEMPO 0706/0708 BKN013 FEW030TCU TEMPO 0708/0724 4000 SHRA SCT025TCU PROB40 TEMPO 0712/0718 SCT045CB TEMPO 0804/0807 BKN008 TEMPO 0810/0812 36015G25KT SCT035TCU=

    Metar: METAR LFPG 070900Z AUTO 28007KT 220V320 9999 BKN023 BKN028 BKN072 15/09 Q1009 TEMPO 4000 SHRA SCT025TCU=

  • Paderborn/Lippstadt (EDLP)

    Taf: TAF EDLP 070550Z 0706/0806 20008KT 9999 SCT045 BECMG 0706/0708 23013KT PROB40 TEMPO 0709/0712 24015G25KT BECMG 0714/0717 26008KT BECMG 0718/0720 20004KT=

    Metar: METAR EDLP 070850Z 23013KT 9999 SCT033 13/06 Q1006=

  • Paris/Le Bourget (LFPB)

    Taf: TAF LFPB 070500Z 0706/0806 27008KT CAVOK PROB30 TEMPO 0706/0708 BKN013 FEW030TCU TEMPO 0708/0724 4000 SHRA SCT025TCU PROB40 TEMPO 0712/0718 SCT045CB TEMPO 0804/0806 BKN008=

    Metar: METAR LFPB 070900Z AUTO 22004KT 160V310 9999 BKN025 OVC074 15/09 Q1009=

  • Rotterdam (EHRD)

    Taf: TAF EHRD 070428Z 0706/0812 27014KT 9999 SCT025 TEMPO 0706/0710 6000 SHRA SCT018CB BKN025 PROB30 TEMPO 0706/0708 29018G28KT 4000 TSRA BKN014 SCT018CB BECMG 0717/0720 25005KT PROB30 TEMPO 0717/0724 7000 -SHRA BKN012 SCT015TCU PROB30 TEMPO 0807/0811 7000 -SHRA SCT018TCU BKN025 BECMG 0809/0812 34010KT=

    Metar: METAR EHRD 070855Z AUTO 28011KT 230V320 9999 BKN019 BKN024 OVC033 13/09 Q1005 NOSIG=

  • Zürich/Kloten (LSZH)

    Taf: TAF LSZH 070825Z 0709/0815 25005KT 9999 FEW007 BKN020 TX15/0715Z TN08/0805Z TX17/0814Z TEMPO 0709/0714 SHRA BKN014 PROB30 TEMPO 0810/0815 05008KT SHRA BKN014=

    Metar: METAR LSZH 070850Z 22003KT 9000 -RA FEW007 BKN057 11/09 Q1010 TEMPO RA BKN012=

  • Oostende/Intl (EBOS)

    Taf: TAF EBOS 070500Z 0706/0812 28013KT 9999 SCT025 PROB30 TEMPO 0718/0724 SHRA TEMPO 0800/0812 BKN014 PROB30 TEMPO 0800/0808 4500 -RA -SHRA BECMG 0806/0808 34013KT=

    Metar: METAR EBOS 070850Z 27011KT 9999 FEW022 14/07 Q1007 NOSIG=

  • Paris/Orly (LFPO)

    Taf: TAF LFPO 070500Z 0706/0812 24006KT CAVOK PROB30 TEMPO 0706/0708 BKN014 BKN025 BECMG 0708/0709 SCT030 TEMPO 0709/0719 4000 SHRA SCT030TCU BECMG 0804/0806 02010KT PROB30 TEMPO 0805/0808 BKN010 TEMPO 0811/0812 34015G25KT 4000 -SHRA BKN030TCU=

    Metar: METAR LFPO 070900Z AUTO VRB03KT 9999 BKN022 BKN066 OVC076 14/09 Q1010 TEMPO 4000 SHRA SCT030TCU=

  • Beauvais (LFOB)

    Taf: TAF LFOB 070500Z 0706/0806 24008KT 9999 SCT012 BKN030 TEMPO 0706/0708 BKN010 BECMG 0715/0718 VRB03KT BECMG 0803/0805 BKN007 PROB40 TEMPO 0803/0806 OVC003=

    Metar: METAR LFOB 070900Z AUTO 29009KT 260V330 9999 BKN030 BKN038 BKN045 15/08 Q1009 NOSIG=

  • Münster/Intl (EDDG)

    Taf: TAF EDDG 070500Z 0706/0806 18008KT 9999 SCT040 BECMG 0707/0709 23013KT TEMPO 0709/0714 24015G25KT PROB30 TEMPO 0710/0714 24020G30KT 4000 SHRA SCT030CB BECMG 0716/0718 26008KT BECMG 0718/0720 VRB02KT PROB30 TEMPO 0803/0806 4000 BR=

    Metar: METAR EDDG 070850Z 20010KT 170V240 9999 -SHRA FEW025TCU SCT028 14/07 Q1004 NOSIG=

  • Illesheim (ETIK)

    Taf: nil

    Metar: METAR ETIK 070856Z AUTO 22005KT 9999 FEW090 FEW110 FEW210 13/12 A2979 RMK AO2 SLP088 60001 T01320121 52008 FZRANO $=

  • Duebendorf (LSMD)

    Taf: TAF LSMD 070500Z NIL=

    Metar: METAR LSMD 070850Z AUTO 29003KT 260V340 9999NDV -RA FEW005 BKN010 OVC028 11/10 Q1010 RMK=

  • Villacoublay (LFPV)

    Taf: TAF LFPV 070800Z 0709/0809 29010KT 9999 SCT015 BKN060 TEMPO 0710/0713 4500 -SHRA SCT020TCU TEMPO 0713/0718 30010G25KT 3000 SHRA SCT020CB=

    Metar: METAR LFPV 070900Z AUTO VRB04KT 9999 BKN019 BKN060 OVC072 14/09 Q1009 TEMPO 4500 -SHRA SCT020TCU=

  • Payerne (LSMP)

    Taf: TAF LSMP 070525Z 0706/0812 VRB03KT 9999 SCT010 BKN035 PROB30 TEMPO 0706/0711 RA=

    Metar: METAR LSMP 070850Z AUTO 00000KT 9999NDV -RA FEW023 12/09 Q1010 RMK=

  • Amsterdam/Schipol (EHAM)

    Taf: TAF EHAM 070429Z 0706/0812 27014KT 9999 SCT025 TEMPO 0706/0710 6000 SHRA SCT018CB BKN025 PROB30 TEMPO 0706/0708 29018G28KT 4000 TSRA BKN014 SCT018CB BECMG 0717/0720 25005KT PROB30 TEMPO 0717/0724 7000 -SHRA BKN012 SCT015TCU PROB30 TEMPO 0806/0810 7000 -SHRA SCT018TCU BKN025 BECMG 0809/0812 34010KT=

    Metar: METAR EHAM 070855Z 28016KT 240V310 9999 SCT024 15/08 Q1004 NOSIG=

  • Emmen (LSME)

    Taf: TAF LSME 070500Z NIL=

    Metar: METAR LSME 070850Z AUTO VRB01KT 9000NDV -RA BKN033 BKN039 OVC044 11/09 Q1010 RMK=

  • Friedrichshafen (EDNY)

    Taf: TAF EDNY 070500Z 0706/0806 VRB03KT 9999 SCT009 BKN020 TEMPO 0706/0711 34005KT RADZ SCT004 OVC009 PROB40 TEMPO 0711/0713 RA BKN012 TEMPO 0800/0806 3500 BR=

    Metar: METAR EDNY 070850Z AUTO VRB02KT 8000 // FEW007/// SCT012/// OVC014/// 11/10 Q1010=

  • Alpnach (LSMA)

    Taf: TAF LSMA 070500Z NIL=

    Metar: METAR LSMA 070850Z AUTO 05003KT 9999NDV -RA FEW026 OVC037 12/10 Q1010 RERA RMK=

  • Meiringen (LSMM)

    Taf: TAF LSMM 070500Z NIL=

    Metar: METAR LSMM 070850Z AUTO 06008KT 020V120 9000NDV -RA FEW012 OVC023 10/09 Q1009 RMK=

  • Nürnberg (EDDN)

    Taf: TAF AMD EDDN 070853Z 0708/0806 30005KT 9999 FEW010 BKN035 TEMPO 0708/0712 VRB03KT RA BECMG 0710/0712 24005KT BECMG 0718/0720 14004KT=

    Metar: METAR EDDN 070850Z VRB01KT 9999 RA FEW005 BKN035 12/10 Q1009 TEMPO NSW=

  • Rouen (LFOP)

    Taf: TAF LFOP 070500Z 0706/0806 24008KT 9999 BKN005 BKN030 BECMG 0706/0709 BKN025 BECMG 0715/0718 34005KT BECMG 0801/0803 BKN006 PROB40 0802/0805 0500 FG VV///=

    Metar: METAR LFOP 070900Z AUTO 28007KT 250V320 9999 FEW034 16/10 Q1009 NOSIG=

  • Evreux (LFOE)

    Taf: TAF LFOE 070800Z 0709/0809 30010KT 9999 BKN018 PROB30 TEMPO 0710/0717 4000 SHRA BKN030TCU TEMPO 0709/0716 4000 SHRA BKN040TCU BECMG 0803/0805 2000 BR OVC004=

    Metar: METAR LFOE 070900Z AUTO 28008KT 9999 BKN025 BKN038 BKN047 14/08 Q1009 TEMPO 4000 SHRA BKN030TCU=

  • Erfurt/Bindersleben (EDDE)

    Taf: TAF EDDE 070500Z 0706/0806 19007KT CAVOK BECMG 0708/0710 21012KT BECMG 0712/0715 27010KT BECMG 0717/0719 26004KT=

    Metar: METAR EDDE 070850Z 20011KT 160V230 9999 SCT036 15/08 Q1007 NOSIG=